Pope Valley, California
Current Conditions -  °F | °C
As of 12:53 AM on Sunday 23 Nov 2014 (Local Time) from KSTS Reporting Station
Clear Clear  
Wind Chill: 45°   Ceiling: Unl
Heat Index: 49°   Visibility: 10mi
Dew Point: 45°   Wind: 8mph
Humidity: 86%   Direction: 10°N
Pressure: 30.25"   Gusts: NA
Location:  38.62°N, 122.43°W
Report Text: KSTS 230853Z AUTO 01007KT 10SM CLR 09/07 A3025 RMK AO2 SLP238 T00940072 51004
Loading
Personal Weather Stations






























Interactive Weather Map New forecast layout! Learn more

10-Day Weather Forecast

Advertisements
Track Severe Weather on mobile